Terminal Aerodrome Forecast
Issued by NWS

Home | Current Version | Previous Version | Text Only | Print | Product List | Glossary On
Versions: 1 2 3 4 5 6 7 8 9 10 11 12 13 14 15 16
000
FTUS44 KLZK 291700
TAFHRO
TAF
KHRO 291728Z 2918/3018 17009KT P6SM VCTS SCT040CB BKN100
      TEMPO 2918/2922 5SM -TSRA BR BKN035CB
     FM292200 16010KT P6SM VCTS SCT050CB BKN100
      TEMPO 2922/3002 5SM -TSRA BKN035CB
     FM300400 16005KT P6SM FEW050 SCT100
     FM301200 VRB04KT P6SM SCT100 BKN250=

USA.gov is the U.S. government's official web portal to all federal, state and local government web resources and services.